Christos Xxii — SVA3834 — position and weather

sailwx.info

Track history (hours):
 
Tides and Currents Weather Stations Pressure Air Temp Water Temp Dewpoint Dewpoint Depression Visibility Wind Speed Wind Dir Waves Ship Positions

Christos Xxii

Last reported at 2017-Sep-19 20:21 UTC. Time now 2017-Sep-24 21:19 UTC.
Position N 37°39' E 023°48'.

Length 44 m; draft 4.8 m.

Type: Tug. MMSI: 241168000.

Date/timePositionNaut miles runAvg speedWind from/ knotsBaromVisibWave heightAir tempDewpointWater temp
2017-Sep-19 20:21N 37°39' E 023°48'2 7.0
2017-Sep-19 20:00N 37°39' E 023°45'3 6.9
2017-Sep-19 19:30N 37°41' E 023°41'3 6.9
2017-Sep-19 19:00N 37°44' E 023°39'3 7.0
2017-Sep-19 18:31N 37°47' E 023°37'3 6.7
2017-Sep-19 18:00N 37°50' E 023°34'3 5.5
2017-Sep-19 17:30N 37°52' E 023°34'2 3.1
2017-Sep-19 17:00N 37°54' E 023°35'1 2.7
2017-Sep-19 16:30N 37°55' E 023°35'2 3.6
2017-Sep-19 16:00N 37°57' E 023°35'3 5.9
2017-Sep-19 15:31N 37°59' E 023°33'3 5.4
2017-Sep-19 15:00N 38°02' E 023°34'0 0.3
2017-Sep-19 14:30N 38°02' E 023°34'0 0.1
2017-Sep-19 14:00N 38°02' E 023°34'0 0.1
2017-Sep-19 13:30N 38°02' E 023°34'0 0.4
2017-Sep-19 13:00N 38°02' E 023°34'2 4.9
2017-Sep-19 12:30N 38°02' E 023°31'0 0.0
2017-Sep-19 12:01N 38°02' E 023°31'0 0.0
2017-Sep-19 11:30N 38°02' E 023°31'0 0.0
2017-Sep-19 11:00N 38°02' E 023°31'0 0.0
2017-Sep-19 10:30N 38°02' E 023°31'4 7.6
2017-Sep-19 10:00N 38°01' E 023°36'0 0.0
2017-Sep-19 09:31N 38°01' E 023°36'0 0.4
2017-Sep-19 09:00N 38°01' E 023°35'4 8.8
2017-Sep-19 08:31N 37°57' E 023°33'0 0.2
2017-Sep-19 08:00N 37°57' E 023°33'0 0.0
2017-Sep-19 07:30N 37°57' E 023°33'0 0.0
2017-Sep-19 07:00N 37°57' E 023°33'0 0.0
2017-Sep-19 06:31N 37°57' E 023°33'0 0.0
2017-Sep-19 06:00N 37°57' E 023°33'0 0.0
2017-Sep-19 05:30N 37°57' E 023°33'0 0.5
2017-Sep-19 05:01N 37°57' E 023°33'0 0.0
2017-Sep-18 09:06N 37°57' E 023°33'0 0.0
2017-Sep-18 09:00N 37°57' E 023°33'1 2.5
2017-Sep-18 08:30N 37°56' E 023°34'0 0.0
2017-Sep-18 08:00N 37°56' E 023°34'0 0.0
2017-Sep-18 07:30N 37°56' E 023°34'0 0.0
2017-Sep-18 07:01N 37°56' E 023°34'0 0.0
2017-Sep-18 06:30N 37°56' E 023°34'0 0.0
2017-Sep-18 06:00N 37°56' E 023°34'0 0.0
2017-Sep-18 05:31N 37°56' E 023°34'0 0.0
2017-Sep-18 05:01N 37°56' E 023°34'0 0.0
2017-Sep-18 04:31N 37°56' E 023°34'0 0.0
2017-Sep-18 04:00N 37°56' E 023°34'0 0.0
2017-Sep-18 03:31N 37°56' E 023°34'0 0.0
2017-Sep-18 03:01N 37°56' E 023°34'0 0.0
2017-Sep-18 02:31N 37°56' E 023°34'0 0.0
2017-Sep-18 02:01N 37°56' E 023°34'0 0.0
2017-Sep-18 01:30N 37°56' E 023°34'0 0.0
2017-Sep-18 01:00N 37°56' E 023°34'0 0.0
2017-Sep-18 00:30N 37°56' E 023°34'0 0.0
2017-Sep-18 00:01N 37°56' E 023°34'0 0.0
2017-Sep-17 23:31N 37°56' E 023°34'0 0.0
2017-Sep-17 23:01N 37°56' E 023°34'0 0.0
2017-Sep-17 22:30N 37°56' E 023°34'0 0.0
2017-Sep-17 22:01N 37°56' E 023°34'0 0.0
2017-Sep-17 21:31N 37°56' E 023°34'0 0.0
2017-Sep-17 21:01N 37°56' E 023°34'0 0.0
2017-Sep-17 20:31N 37°56' E 023°34'0 0.0
2017-Sep-17 20:01N 37°56' E 023°34'0 0.0
2017-Sep-17 19:30N 37°56' E 023°34'0 0.0
2017-Sep-17 19:01N 37°56' E 023°34'0 0.0
2017-Sep-17 18:31N 37°56' E 023°34'0 0.0
2017-Sep-17 18:00N 37°56' E 023°34'0 0.0
2017-Sep-17 17:30N 37°56' E 023°34'0 0.0
2017-Sep-17 17:01N 37°56' E 023°34'0 0.0
2017-Sep-17 16:31N 37°56' E 023°34'0 0.0
2017-Sep-17 16:01N 37°56' E 023°34'0 0.0
2017-Sep-17 15:31N 37°56' E 023°34'0 0.0
2017-Sep-17 15:01N 37°56' E 023°34'0 0.0
2017-Sep-17 14:31N 37°56' E 023°34'0 0.0
2017-Sep-17 14:01N 37°56' E 023°34'0 0.0
2017-Sep-17 13:31N 37°56' E 023°34'0 0.0
2017-Sep-17 13:00N 37°56' E 023°34'0 0.0
2017-Sep-17 12:31N 37°56' E 023°34'0 0.0
2017-Sep-17 12:01N 37°56' E 023°34'0 0.0
2017-Sep-17 11:31N 37°56' E 023°34'0 0.0
2017-Sep-17 11:01N 37°56' E 023°34'0 0.0
2017-Sep-17 10:31N 37°56' E 023°34'0 0.0
2017-Sep-17 10:01N 37°56' E 023°34'0 0.0
2017-Sep-17 09:30N 37°56' E 023°34'0 0.0
2017-Sep-17 09:01N 37°56' E 023°34'0 0.0
2017-Sep-17 08:31N 37°56' E 023°34'0 0.0
2017-Sep-17 08:01N 37°56' E 023°34'0 0.0
2017-Sep-17 07:31N 37°56' E 023°34'0 0.5
2017-Sep-17 07:01N 37°56' E 023°34'2 3.0
2017-Sep-17 06:31N 37°57' E 023°33'1 2.6
2017-Sep-17 06:01N 37°56' E 023°34'0 0.4
2017-Sep-17 05:30N 37°56' E 023°34'0 0.0
2017-Sep-17 05:01N 37°56' E 023°34'0 0.0
2017-Sep-17 04:31N 37°56' E 023°34'0 0.0
2017-Sep-17 04:01N 37°56' E 023°34'0 0.0
2017-Sep-17 03:31N 37°56' E 023°34'0 0.0
2017-Sep-17 03:00N 37°56' E 023°34'0 0.0
2017-Sep-17 02:31N 37°56' E 023°34'0 0.0
2017-Sep-17 02:00N 37°56' E 023°34'0 0.0
2017-Sep-17 01:31N 37°56' E 023°34'0 0.0
2017-Sep-17 01:01N 37°56' E 023°34'0 0.0
2017-Sep-17 00:31N 37°56' E 023°34'0 0.0
2017-Sep-17 00:01N 37°56' E 023°34'0 0.0
2017-Sep-16 23:31N 37°56' E 023°34'0 0.0
2017-Sep-16 23:00N 37°56' E 023°34'0 0.0
2017-Sep-16 22:30N 37°56' E 023°34'0 0.0
2017-Sep-16 22:01N 37°56' E 023°34'0 0.0
2017-Sep-16 21:31N 37°56' E 023°34'0 0.0
2017-Sep-16 21:01N 37°56' E 023°34'0 0.0
2017-Sep-16 20:31N 37°56' E 023°34'0 0.0
2017-Sep-16 20:01N 37°56' E 023°34'0 0.0
2017-Sep-16 19:31N 37°56' E 023°34'0 0.0
2017-Sep-16 19:01N 37°56' E 023°34'0 0.0
2017-Sep-16 18:30N 37°56' E 023°34'0 0.0
2017-Sep-16 18:00N 37°56' E 023°34'0 0.0
2017-Sep-16 17:31N 37°56' E 023°34'0 0.0
2017-Sep-16 17:00N 37°56' E 023°34'0 0.0
2017-Sep-16 16:31N 37°56' E 023°34'0 0.0
2017-Sep-16 16:01N 37°56' E 023°34'0 0.0
2017-Sep-16 15:31N 37°56' E 023°34'0 0.0
2017-Sep-16 15:00N 37°56' E 023°34'0 0.0
2017-Sep-16 14:31N 37°56' E 023°34'0 0.0
2017-Sep-16 14:00N 37°56' E 023°34'0 0.0
2017-Sep-16 13:30N 37°56' E 023°34'0 0.0
2017-Sep-16 13:00N 37°56' E 023°34'0 0.0
2017-Sep-16 12:31N 37°56' E 023°34'0 0.0
2017-Sep-16 12:01N 37°56' E 023°34'0 0.0
2017-Sep-16 11:31N 37°56' E 023°34'0 0.0
2017-Sep-16 11:00N 37°56' E 023°34'0 0.0
2017-Sep-16 10:30N 37°56' E 023°34'0 0.0
2017-Sep-16 10:01N 37°56' E 023°34'0 0.0
2017-Sep-16 09:31N 37°56' E 023°34'0 0.0
2017-Sep-16 09:01N 37°56' E 023°34'0 0.0
2017-Sep-16 08:30N 37°56' E 023°34'0 0.0
2017-Sep-16 08:01N 37°56' E 023°34'0 0.0
2017-Sep-16 07:31N 37°56' E 023°34'0 0.0
2017-Sep-16 07:01N 37°56' E 023°34'0 0.0
2017-Sep-16 06:31N 37°56' E 023°34'0 0.0
2017-Sep-16 06:01N 37°56' E 023°34'0 0.1
2017-Sep-16 05:30N 37°56' E 023°34'0 0.7
2017-Sep-16 05:00N 37°56' E 023°34'1 2.3
2017-Sep-16 04:30N 37°57' E 023°33'1 0.1
2017-Sep-15 12:29N 37°57' E 023°35'1 2.3
2017-Sep-15 12:00N 37°56' E 023°34'0 0.5
2017-Sep-15 11:30N 37°56' E 023°34'0 0.0
2017-Sep-15 11:01N 37°56' E 023°34'0 0.0
2017-Sep-15 10:30N 37°56' E 023°34'0 0.0
2017-Sep-15 10:00N 37°56' E 023°34'0 0.0
2017-Sep-15 09:30N 37°56' E 023°34'0 0.0
2017-Sep-15 09:00N 37°56' E 023°34'0 0.4
2017-Sep-15 08:30N 37°56' E 023°34'0 0.2
2017-Sep-15 08:00N 37°56' E 023°34'0 0.0
2017-Sep-15 07:30N 37°56' E 023°34'0 0.0
2017-Sep-15 07:01N 37°56' E 023°34'0 0.0
2017-Sep-15 06:31N 37°56' E 023°34'0 0.0
2017-Sep-15 06:01N 37°56' E 023°34'0 0.0
2017-Sep-15 05:30N 37°56' E 023°34'0 0.0
2017-Sep-15 05:00N 37°56' E 023°34'0 0.0
2017-Sep-15 04:30N 37°56' E 023°34'0 0.0
2017-Sep-15 04:01N 37°56' E 023°34'0 0.0
2017-Sep-15 03:30N 37°56' E 023°34'0 0.0
2017-Sep-15 03:00N 37°56' E 023°34'0 0.0
2017-Sep-15 02:31N 37°56' E 023°34'0 0.0
2017-Sep-15 02:00N 37°56' E 023°34'0 0.0
2017-Sep-15 01:30N 37°56' E 023°34'0 0.0
2017-Sep-15 01:01N 37°56' E 023°34'0 0.0
2017-Sep-15 00:31N 37°56' E 023°34'0 0.0
2017-Sep-15 00:00N 37°56' E 023°34'0 0.0
2017-Sep-14 23:30N 37°56' E 023°34'0 0.0
2017-Sep-14 23:00N 37°56' E 023°34'0 0.0
2017-Sep-14 22:30N 37°56' E 023°34'0 0.0
2017-Sep-14 22:01N 37°56' E 023°34'0 0.0
2017-Sep-14 21:30N 37°56' E 023°34'0 0.0
2017-Sep-14 21:00N 37°56' E 023°34'0 0.0
2017-Sep-14 20:30N 37°56' E 023°34'0 0.0
2017-Sep-14 20:00N 37°56' E 023°34'0 0.0
2017-Sep-14 19:31N 37°56' E 023°34'0 0.0
2017-Sep-14 19:01N 37°56' E 023°34'0 0.0
2017-Sep-14 18:30N 37°56' E 023°34'0 0.0
2017-Sep-14 18:01N 37°56' E 023°34'0 0.1
2017-Sep-14 17:30N 37°56' E 023°34'4 8.8
2017-Sep-14 17:00N 37°56' E 023°39'1 2.0
2017-Sep-14 16:30N 37°56' E 023°40'0 0.0
2017-Sep-14 16:00N 37°56' E 023°40'0 0.0
2017-Sep-14 15:30N 37°56' E 023°40'0 0.0
2017-Sep-14 15:00N 37°56' E 023°40'0 0.0
2017-Sep-14 14:30N 37°56' E 023°40'0 0.1
2017-Sep-14 14:00N 37°56' E 023°41'0 0.3
2017-Sep-14 13:30N 37°56' E 023°41'1 2.0
2017-Sep-14 13:00N 37°56' E 023°40'510.6
2017-Sep-14 12:30N 37°57' E 023°33'0 0.0
2017-Sep-14 12:00N 37°57' E 023°33'1 3.0
2017-Sep-14 11:30N 37°56' E 023°34'0 0.1
2017-Sep-14 11:01N 37°56' E 023°34'0 0.0
2017-Sep-14 10:30N 37°56' E 023°34'0 0.0
2017-Sep-14 10:00N 37°56' E 023°34'0 0.0
2017-Sep-14 09:30N 37°56' E 023°34'0 0.0
2017-Sep-14 09:01N 37°56' E 023°34'0 0.0
2017-Sep-14 08:30N 37°56' E 023°34'0 0.0
2017-Sep-14 08:00N 37°56' E 023°34'0 0.0
2017-Sep-14 07:30N 37°56' E 023°34'0 0.0
2017-Sep-14 07:00N 37°56' E 023°34'0 0.0
2017-Sep-14 06:30N 37°56' E 023°34'0 0.0
2017-Sep-14 06:00N 37°56' E 023°34'0 0.0
2017-Sep-14 05:31N 37°56' E 023°34'0 0.0
2017-Sep-14 05:00N 37°56' E 023°34'0 0.0
2017-Sep-14 04:30N 37°56' E 023°34'0 0.0
2017-Sep-14 04:00N 37°56' E 023°34'0 0.0
2017-Sep-14 03:30N 37°56' E 023°34'0 0.0
2017-Sep-14 03:01N 37°56' E 023°34'0 0.0
2017-Sep-14 02:30N 37°56' E 023°34'0 0.0
2017-Sep-14 02:00N 37°56' E 023°34'0 0.0
2017-Sep-14 01:31N 37°56' E 023°34'0 0.0
2017-Sep-14 01:00N 37°56' E 023°34'0 0.0
2017-Sep-14 00:31N 37°56' E 023°34'0 0.0
2017-Sep-14 00:00N 37°56' E 023°34'0 0.0
2017-Sep-13 23:30N 37°56' E 023°34'0 0.0
2017-Sep-13 23:00N 37°56' E 023°34'0 0.0
2017-Sep-13 22:30N 37°56' E 023°34'0 0.0
2017-Sep-13 22:00N 37°56' E 023°34'0 0.0
2017-Sep-13 21:30N 37°56' E 023°34'0 0.1
2017-Sep-13 21:01N 37°56' E 023°34'0 0.0
2017-Sep-13 20:30N 37°56' E 023°34'0 0.0
2017-Sep-13 20:00N 37°56' E 023°34'0 0.0
2017-Sep-13 19:30N 37°56' E 023°34'0 0.0
2017-Sep-13 19:01N 37°56' E 023°34'0 0.0
2017-Sep-13 18:31N 37°56' E 023°34'0 0.1
2017-Sep-13 18:01N 37°56' E 023°34'0 0.3
2017-Sep-13 17:30N 37°56' E 023°34'0 0.5
2017-Sep-13 17:00N 37°56' E 023°34'1 2.6
2017-Sep-13 16:30N 37°57' E 023°33'0 0.0
2017-Sep-13 16:00N 37°57' E 023°33'0 0.0
2017-Sep-13 15:30N 37°57' E 023°33'1 2.9
2017-Sep-13 15:00N 37°56' E 023°34'0 0.1
2017-Sep-13 14:30N 37°56' E 023°34'0 0.0
2017-Sep-13 14:00N 37°56' E 023°34'0 0.0
2017-Sep-13 13:30N 37°56' E 023°34'0 0.0
2017-Sep-13 13:01N 37°56' E 023°34'0 0.0
2017-Sep-13 12:31N 37°56' E 023°34'0 0.0
2017-Sep-13 12:00N 37°56' E 023°34'0 0.0
2017-Sep-13 11:31N 37°56' E 023°34'0 0.0
2017-Sep-13 11:00N 37°56' E 023°34'0 0.0
2017-Sep-13 10:31N 37°56' E 023°34'0 0.0
2017-Sep-13 10:00N 37°56' E 023°34'0 0.0
2017-Sep-13 09:30N 37°56' E 023°34'0 0.0
2017-Sep-13 09:01N 37°56' E 023°34'0 0.0
2017-Sep-13 08:30N 37°56' E 023°34'0 0.1
2017-Sep-13 08:00N 37°56' E 023°34'0 0.5
2017-Sep-13 07:30N 37°56' E 023°34'0 0.4
2017-Sep-13 07:00N 37°56' E 023°34'0 0.1
2017-Sep-13 06:30N 37°56' E 023°34'0 0.0
2017-Sep-13 06:01N 37°56' E 023°34'0 0.0
2017-Sep-13 05:30N 37°56' E 023°34'0 0.2
2017-Sep-13 05:01N 37°56' E 023°34'1 1.9
2017-Sep-13 04:30N 37°57' E 023°35'1 2.9
2017-Sep-13 04:00N 37°57' E 023°33'0 0.0
2017-Sep-13 03:30N 37°57' E 023°33'0 0.0
2017-Sep-12 05:08N 37°57' E 023°33'0 1.8
2017-Sep-12 05:00N 37°57' E 023°33'1 2.6
2017-Sep-12 04:30N 37°56' E 023°34'0 0.0
2017-Sep-12 04:00N 37°56' E 023°34'0 0.0
2017-Sep-12 03:30N 37°56' E 023°34'0 0.0
2017-Sep-12 03:00N 37°56' E 023°34'0 0.0
2017-Sep-12 02:30N 37°56' E 023°34'0 0.0
2017-Sep-12 02:00N 37°56' E 023°34'0 0.0
2017-Sep-12 01:30N 37°56' E 023°34'0 0.0
2017-Sep-12 01:00N 37°56' E 023°34'0 0.0
2017-Sep-12 00:30N 37°56' E 023°34'0 0.0
2017-Sep-12 00:00N 37°56' E 023°34'0 0.0
2017-Sep-11 23:31N 37°56' E 023°34'0 0.1
2017-Sep-11 23:00N 37°56' E 023°34'0 0.0
2017-Sep-11 22:30N 37°56' E 023°34'0 0.0
2017-Sep-11 22:01N 37°56' E 023°34'0 0.0
2017-Sep-11 21:31N 37°56' E 023°34'0 0.0
2017-Sep-11 21:00N 37°56' E 023°34'0 0.0
2017-Sep-11 20:30N 37°56' E 023°34'0 0.0
2017-Sep-11 20:01N 37°56' E 023°34'0 0.0
2017-Sep-11 19:31N 37°56' E 023°34'0 0.0
2017-Sep-11 19:00N 37°56' E 023°34'0 0.0
2017-Sep-11 18:31N 37°56' E 023°34'0 0.0
2017-Sep-11 18:01N 37°56' E 023°34'0 0.0
2017-Sep-11 17:31N 37°56' E 023°34'0 0.0
2017-Sep-11 17:01N 37°56' E 023°34'0 0.0
2017-Sep-11 16:30N 37°56' E 023°34'0 0.0
2017-Sep-11 16:00N 37°56' E 023°34'0 0.0
2017-Sep-11 15:30N 37°56' E 023°34'0 0.0
2017-Sep-11 15:01N 37°56' E 023°34'0 0.3
2017-Sep-11 14:30N 37°56' E 023°34'0 0.4
2017-Sep-11 14:01N 37°56' E 023°34'0 0.6
2017-Sep-11 13:31N 37°56' E 023°34'1 2.6
2017-Sep-11 13:01N 37°57' E 023°33'0 0.3
2017-Sep-11 12:31N 37°57' E 023°33'0 0.5
2017-Sep-11 12:00N 37°57' E 023°33'0 0.0
2017-Sep-11 11:30N 37°57' E 023°33'1 1.8
2017-Sep-11 11:00N 37°57' E 023°34'1 2.4
2017-Sep-11 10:30N 37°56' E 023°34'0 0.0
2017-Sep-11 10:01N 37°56' E 023°34'0 0.0
2017-Sep-11 09:30N 37°56' E 023°34'0 0.0
2017-Sep-11 09:01N 37°56' E 023°34'0 0.0
2017-Sep-11 08:30N 37°56' E 023°34'0 0.0
2017-Sep-11 08:00N 37°56' E 023°34'0 0.0
2017-Sep-11 07:31N 37°56' E 023°34'0 0.0
2017-Sep-11 07:00N 37°56' E 023°34'0 0.0
2017-Sep-11 06:31N 37°56' E 023°34'0 0.0
2017-Sep-11 06:00N 37°56' E 023°34'0 0.0
2017-Sep-11 05:31N 37°56' E 023°34'0 0.0
2017-Sep-11 05:01N 37°56' E 023°34'0 0.0
2017-Sep-11 04:30N 37°56' E 023°34'0 0.0
2017-Sep-11 04:00N 37°56' E 023°34'0 0.0
2017-Sep-11 03:31N 37°56' E 023°34'0 0.0
2017-Sep-11 03:00N 37°56' E 023°34'0 0.0
2017-Sep-11 02:30N 37°56' E 023°34'0 0.0
2017-Sep-11 02:00N 37°56' E 023°34'0 0.0
2017-Sep-11 01:30N 37°56' E 023°34'0 0.0
2017-Sep-11 01:00N 37°56' E 023°34'0 0.0
2017-Sep-11 00:30N 37°56' E 023°34'0 0.0
2017-Sep-11 00:01N 37°56' E 023°34'0 0.0
2017-Sep-10 23:30N 37°56' E 023°34'0 0.0
2017-Sep-10 23:01N 37°56' E 023°34'0 0.0
2017-Sep-10 22:30N 37°56' E 023°34'0 0.0
2017-Sep-10 22:01N 37°56' E 023°34'0 0.0
2017-Sep-10 21:30N 37°56' E 023°34'0 0.0
2017-Sep-10 21:00N 37°56' E 023°34'0 0.0
2017-Sep-10 20:30N 37°56' E 023°34'0 0.0
2017-Sep-10 20:00N 37°56' E 023°34'0 0.0
2017-Sep-10 19:30N 37°56' E 023°34'0 0.0
2017-Sep-10 19:00N 37°56' E 023°34'0 0.0
2017-Sep-10 18:30N 37°56' E 023°34'0 0.0
2017-Sep-10 18:01N 37°56' E 023°34'0 0.0
2017-Sep-10 17:30N 37°56' E 023°34'0 0.0
2017-Sep-10 17:00N 37°56' E 023°34'0 0.0
2017-Sep-10 16:31N 37°56' E 023°34'0 0.0
2017-Sep-10 16:00N 37°56' E 023°34'0 0.0
2017-Sep-10 15:30N 37°56' E 023°34'0 0.0
2017-Sep-10 15:00N 37°56' E 023°34'0 0.0
2017-Sep-10 14:00N 37°56' E 023°34'0 0.0
2017-Sep-10 13:30N 37°56' E 023°34'0 0.0
2017-Sep-10 13:00N 37°56' E 023°34'0 0.0
2017-Sep-10 12:30N 37°56' E 023°34'0 0.4
2017-Sep-10 12:01N 37°56' E 023°34'1 2.9
2017-Sep-10 11:30N 37°57' E 023°33'0 0.4
2017-Sep-10 11:00N 37°57' E 023°33'0 0.0
2017-Sep-10 10:30N 37°57' E 023°33'0 0.0
2017-Sep-10 10:00N 37°57' E 023°33'0 0.5
2017-Sep-10 09:30N 37°57' E 023°33'1 2.8
2017-Sep-10 09:00N 37°56' E 023°34'0 0.0
2017-Sep-10 08:30N 37°56' E 023°34'0 0.0
2017-Sep-10 08:00N 37°56' E 023°34'0 0.0
2017-Sep-10 07:30N 37°56' E 023°34'0 0.6
2017-Sep-10 07:00N 37°56' E 023°34'0 0.3
2017-Sep-10 06:30N 37°56' E 023°34'0 0.3
2017-Sep-10 06:00N 37°56' E 023°34'0 0.1
2017-Sep-10 05:30N 37°56' E 023°34'0 0.1
2017-Sep-10 05:00N 37°56' E 023°34'1 1.3
2017-Sep-10 04:30N 37°56' E 023°35'2 3.3
2017-Sep-10 04:01N 37°57' E 023°33'0 0.0
2017-Sep-10 03:31N 37°57' E 023°33'0 0.0
2017-Sep-10 03:00N 37°57' E 023°33'0 0.0
2017-Sep-10 02:30N 37°57' E 023°33'0 0.0
2017-Sep-10 02:00N 37°57' E 023°33'0 0.0
2017-Sep-10 01:30N 37°57' E 023°33'0 0.0
2017-Sep-10 01:01N 37°57' E 023°33'0 0.0
2017-Sep-10 00:30N 37°57' E 023°33'0 0.0
2017-Sep-10 00:00N 37°57' E 023°33'0 0.0
2017-Sep-09 23:30N 37°57' E 023°33'0 0.0
2017-Sep-09 23:00N 37°57' E 023°33'0 0.0
2017-Sep-09 22:30N 37°57' E 023°33'0 0.0
2017-Sep-09 22:00N 37°57' E 023°33'0 0.0
2017-Sep-09 21:30N 37°57' E 023°33'0 0.0
2017-Sep-09 21:00N 37°57' E 023°33'0 0.0
2017-Sep-09 20:30N 37°57' E 023°33'  
Track history (hours):
 
Tides and Currents Weather Stations Pressure Air Temp Water Temp Dewpoint Dewpoint Depression Visibility Wind Speed Wind Dir Waves Ship Positions

Christos Xxii

Last reported at 2017-Sep-19 20:21 UTC. Time now 2017-Sep-24 21:19 UTC.
Position N 37°39' E 023°48'.

Length 44 m; draft 4.8 m.

Type: Tug. MMSI: 241168000.

Date/timePositionNaut miles runAvg speedWind from/ knotsBaromVisibWave heightAir tempDewpointWater temp
2017-Sep-19 20:21N 37°39' E 023°48'2 7.0
2017-Sep-19 20:00N 37°39' E 023°45'3 6.9
2017-Sep-19 19:30N 37°41' E 023°41'3 6.9
2017-Sep-19 19:00N 37°44' E 023°39'3 7.0
2017-Sep-19 18:31N 37°47' E 023°37'3 6.7
2017-Sep-19 18:00N 37°50' E 023°34'3 5.5
2017-Sep-19 17:30N 37°52' E 023°34'2 3.1
2017-Sep-19 17:00N 37°54' E 023°35'1 2.7
2017-Sep-19 16:30N 37°55' E 023°35'2 3.6
2017-Sep-19 16:00N 37°57' E 023°35'3 5.9
2017-Sep-19 15:31N 37°59' E 023°33'3 5.4
2017-Sep-19 15:00N 38°02' E 023°34'0 0.3
2017-Sep-19 14:30N 38°02' E 023°34'0 0.1
2017-Sep-19 14:00N 38°02' E 023°34'0 0.1
2017-Sep-19 13:30N 38°02' E 023°34'0 0.4
2017-Sep-19 13:00N 38°02' E 023°34'2 4.9
2017-Sep-19 12:30N 38°02' E 023°31'0 0.0
2017-Sep-19 12:01N 38°02' E 023°31'0 0.0
2017-Sep-19 11:30N 38°02' E 023°31'0 0.0
2017-Sep-19 11:00N 38°02' E 023°31'0 0.0
2017-Sep-19 10:30N 38°02' E 023°31'4 7.6
2017-Sep-19 10:00N 38°01' E 023°36'0 0.0
2017-Sep-19 09:31N 38°01' E 023°36'0 0.4
2017-Sep-19 09:00N 38°01' E 023°35'4 8.8
2017-Sep-19 08:31N 37°57' E 023°33'0 0.2
2017-Sep-19 08:00N 37°57' E 023°33'0 0.0
2017-Sep-19 07:30N 37°57' E 023°33'0 0.0
2017-Sep-19 07:00N 37°57' E 023°33'0 0.0
2017-Sep-19 06:31N 37°57' E 023°33'0 0.0
2017-Sep-19 06:00N 37°57' E 023°33'0 0.0
2017-Sep-19 05:30N 37°57' E 023°33'0 0.5
2017-Sep-19 05:01N 37°57' E 023°33'0 0.0
2017-Sep-18 09:06N 37°57' E 023°33'0 0.0
2017-Sep-18 09:00N 37°57' E 023°33'1 2.5
2017-Sep-18 08:30N 37°56' E 023°34'0 0.0
2017-Sep-18 08:00N 37°56' E 023°34'0 0.0
2017-Sep-18 07:30N 37°56' E 023°34'0 0.0
2017-Sep-18 07:01N 37°56' E 023°34'0 0.0
2017-Sep-18 06:30N 37°56' E 023°34'0 0.0
2017-Sep-18 06:00N 37°56' E 023°34'0 0.0
2017-Sep-18 05:31N 37°56' E 023°34'0 0.0
2017-Sep-18 05:01N 37°56' E 023°34'0 0.0
2017-Sep-18 04:31N 37°56' E 023°34'0 0.0
2017-Sep-18 04:00N 37°56' E 023°34'0 0.0
2017-Sep-18 03:31N 37°56' E 023°34'0 0.0
2017-Sep-18 03:01N 37°56' E 023°34'0 0.0
2017-Sep-18 02:31N 37°56' E 023°34'0 0.0
2017-Sep-18 02:01N 37°56' E 023°34'0 0.0
2017-Sep-18 01:30N 37°56' E 023°34'0 0.0
2017-Sep-18 01:00N 37°56' E 023°34'0 0.0
2017-Sep-18 00:30N 37°56' E 023°34'0 0.0
2017-Sep-18 00:01N 37°56' E 023°34'0 0.0
2017-Sep-17 23:31N 37°56' E 023°34'0 0.0
2017-Sep-17 23:01N 37°56' E 023°34'0 0.0
2017-Sep-17 22:30N 37°56' E 023°34'0 0.0
2017-Sep-17 22:01N 37°56' E 023°34'0 0.0
2017-Sep-17 21:31N 37°56' E 023°34'0 0.0
2017-Sep-17 21:01N 37°56' E 023°34'0 0.0
2017-Sep-17 20:31N 37°56' E 023°34'0 0.0
2017-Sep-17 20:01N 37°56' E 023°34'0 0.0
2017-Sep-17 19:30N 37°56' E 023°34'0 0.0
2017-Sep-17 19:01N 37°56' E 023°34'0 0.0
2017-Sep-17 18:31N 37°56' E 023°34'0 0.0
2017-Sep-17 18:00N 37°56' E 023°34'0 0.0
2017-Sep-17 17:30N 37°56' E 023°34'0 0.0
2017-Sep-17 17:01N 37°56' E 023°34'0 0.0
2017-Sep-17 16:31N 37°56' E 023°34'0 0.0
2017-Sep-17 16:01N 37°56' E 023°34'0 0.0
2017-Sep-17 15:31N 37°56' E 023°34'0 0.0
2017-Sep-17 15:01N 37°56' E 023°34'0 0.0
2017-Sep-17 14:31N 37°56' E 023°34'0 0.0
2017-Sep-17 14:01N 37°56' E 023°34'0 0.0
2017-Sep-17 13:31N 37°56' E 023°34'0 0.0
2017-Sep-17 13:00N 37°56' E 023°34'0 0.0
2017-Sep-17 12:31N 37°56' E 023°34'0 0.0
2017-Sep-17 12:01N 37°56' E 023°34'0 0.0
2017-Sep-17 11:31N 37°56' E 023°34'0 0.0
2017-Sep-17 11:01N 37°56' E 023°34'0 0.0
2017-Sep-17 10:31N 37°56' E 023°34'0 0.0
2017-Sep-17 10:01N 37°56' E 023°34'0 0.0
2017-Sep-17 09:30N 37°56' E 023°34'0 0.0
2017-Sep-17 09:01N 37°56' E 023°34'0 0.0
2017-Sep-17 08:31N 37°56' E 023°34'0 0.0
2017-Sep-17 08:01N 37°56' E 023°34'0 0.0
2017-Sep-17 07:31N 37°56' E 023°34'0 0.5
2017-Sep-17 07:01N 37°56' E 023°34'2 3.0
2017-Sep-17 06:31N 37°57' E 023°33'1 2.6
2017-Sep-17 06:01N 37°56' E 023°34'0 0.4
2017-Sep-17 05:30N 37°56' E 023°34'0 0.0
2017-Sep-17 05:01N 37°56' E 023°34'0 0.0
2017-Sep-17 04:31N 37°56' E 023°34'0 0.0
2017-Sep-17 04:01N 37°56' E 023°34'0 0.0
2017-Sep-17 03:31N 37°56' E 023°34'0 0.0
2017-Sep-17 03:00N 37°56' E 023°34'0 0.0
2017-Sep-17 02:31N 37°56' E 023°34'0 0.0
2017-Sep-17 02:00N 37°56' E 023°34'0 0.0
2017-Sep-17 01:31N 37°56' E 023°34'0 0.0
2017-Sep-17 01:01N 37°56' E 023°34'0 0.0
2017-Sep-17 00:31N 37°56' E 023°34'0 0.0
2017-Sep-17 00:01N 37°56' E 023°34'0 0.0
2017-Sep-16 23:31N 37°56' E 023°34'0 0.0
2017-Sep-16 23:00N 37°56' E 023°34'0 0.0
2017-Sep-16 22:30N 37°56' E 023°34'0 0.0
2017-Sep-16 22:01N 37°56' E 023°34'0 0.0
2017-Sep-16 21:31N 37°56' E 023°34'0 0.0
2017-Sep-16 21:01N 37°56' E 023°34'0 0.0
2017-Sep-16 20:31N 37°56' E 023°34'0 0.0
2017-Sep-16 20:01N 37°56' E 023°34'0 0.0
2017-Sep-16 19:31N 37°56' E 023°34'0 0.0
2017-Sep-16 19:01N 37°56' E 023°34'0 0.0
2017-Sep-16 18:30N 37°56' E 023°34'0 0.0
2017-Sep-16 18:00N 37°56' E 023°34'0 0.0
2017-Sep-16 17:31N 37°56' E 023°34'0 0.0
2017-Sep-16 17:00N 37°56' E 023°34'0 0.0
2017-Sep-16 16:31N 37°56' E 023°34'0 0.0
2017-Sep-16 16:01N 37°56' E 023°34'0 0.0
2017-Sep-16 15:31N 37°56' E 023°34'0 0.0
2017-Sep-16 15:00N 37°56' E 023°34'0 0.0
2017-Sep-16 14:31N 37°56' E 023°34'0 0.0
2017-Sep-16 14:00N 37°56' E 023°34'0 0.0
2017-Sep-16 13:30N 37°56' E 023°34'0 0.0
2017-Sep-16 13:00N 37°56' E 023°34'0 0.0
2017-Sep-16 12:31N 37°56' E 023°34'0 0.0
2017-Sep-16 12:01N 37°56' E 023°34'0 0.0
2017-Sep-16 11:31N 37°56' E 023°34'0 0.0
2017-Sep-16 11:00N 37°56' E 023°34'0 0.0
2017-Sep-16 10:30N 37°56' E 023°34'0 0.0
2017-Sep-16 10:01N 37°56' E 023°34'0 0.0
2017-Sep-16 09:31N 37°56' E 023°34'0 0.0
2017-Sep-16 09:01N 37°56' E 023°34'0 0.0
2017-Sep-16 08:30N 37°56' E 023°34'0 0.0
2017-Sep-16 08:01N 37°56' E 023°34'0 0.0
2017-Sep-16 07:31N 37°56' E 023°34'0 0.0
2017-Sep-16 07:01N 37°56' E 023°34'0 0.0
2017-Sep-16 06:31N 37°56' E 023°34'0 0.0
2017-Sep-16 06:01N 37°56' E 023°34'0 0.1
2017-Sep-16 05:30N 37°56' E 023°34'0 0.7
2017-Sep-16 05:00N 37°56' E 023°34'1 2.3
2017-Sep-16 04:30N 37°57' E 023°33'1 0.1
2017-Sep-15 12:29N 37°57' E 023°35'1 2.3
2017-Sep-15 12:00N 37°56' E 023°34'0 0.5
2017-Sep-15 11:30N 37°56' E 023°34'0 0.0
2017-Sep-15 11:01N 37°56' E 023°34'0 0.0
2017-Sep-15 10:30N 37°56' E 023°34'0 0.0
2017-Sep-15 10:00N 37°56' E 023°34'0 0.0
2017-Sep-15 09:30N 37°56' E 023°34'0 0.0
2017-Sep-15 09:00N 37°56' E 023°34'0 0.4
2017-Sep-15 08:30N 37°56' E 023°34'0 0.2
2017-Sep-15 08:00N 37°56' E 023°34'0 0.0
2017-Sep-15 07:30N 37°56' E 023°34'0 0.0
2017-Sep-15 07:01N 37°56' E 023°34'0 0.0
2017-Sep-15 06:31N 37°56' E 023°34'0 0.0
2017-Sep-15 06:01N 37°56' E 023°34'0 0.0
2017-Sep-15 05:30N 37°56' E 023°34'0 0.0
2017-Sep-15 05:00N 37°56' E 023°34'0 0.0
2017-Sep-15 04:30N 37°56' E 023°34'0 0.0
2017-Sep-15 04:01N 37°56' E 023°34'0 0.0
2017-Sep-15 03:30N 37°56' E 023°34'0 0.0
2017-Sep-15 03:00N 37°56' E 023°34'0 0.0
2017-Sep-15 02:31N 37°56' E 023°34'0 0.0
2017-Sep-15 02:00N 37°56' E 023°34'0 0.0
2017-Sep-15 01:30N 37°56' E 023°34'0 0.0
2017-Sep-15 01:01N 37°56' E 023°34'0 0.0
2017-Sep-15 00:31N 37°56' E 023°34'0 0.0
2017-Sep-15 00:00N 37°56' E 023°34'0 0.0
2017-Sep-14 23:30N 37°56' E 023°34'0 0.0
2017-Sep-14 23:00N 37°56' E 023°34'0 0.0
2017-Sep-14 22:30N 37°56' E 023°34'0 0.0
2017-Sep-14 22:01N 37°56' E 023°34'0 0.0
2017-Sep-14 21:30N 37°56' E 023°34'0 0.0
2017-Sep-14 21:00N 37°56' E 023°34'0 0.0
2017-Sep-14 20:30N 37°56' E 023°34'0 0.0
2017-Sep-14 20:00N 37°56' E 023°34'0 0.0
2017-Sep-14 19:31N 37°56' E 023°34'0 0.0
2017-Sep-14 19:01N 37°56' E 023°34'0 0.0
2017-Sep-14 18:30N 37°56' E 023°34'0 0.0
2017-Sep-14 18:01N 37°56' E 023°34'0 0.1
2017-Sep-14 17:30N 37°56' E 023°34'4 8.8
2017-Sep-14 17:00N 37°56' E 023°39'1 2.0
2017-Sep-14 16:30N 37°56' E 023°40'0 0.0
2017-Sep-14 16:00N 37°56' E 023°40'0 0.0
2017-Sep-14 15:30N 37°56' E 023°40'0 0.0
2017-Sep-14 15:00N 37°56' E 023°40'0 0.0
2017-Sep-14 14:30N 37°56' E 023°40'0 0.1
2017-Sep-14 14:00N 37°56' E 023°41'0 0.3
2017-Sep-14 13:30N 37°56' E 023°41'1 2.0
2017-Sep-14 13:00N 37°56' E 023°40'510.6
2017-Sep-14 12:30N 37°57' E 023°33'0 0.0
2017-Sep-14 12:00N 37°57' E 023°33'1 3.0
2017-Sep-14 11:30N 37°56' E 023°34'0 0.1
2017-Sep-14 11:01N 37°56' E 023°34'0 0.0
2017-Sep-14 10:30N 37°56' E 023°34'0 0.0
2017-Sep-14 10:00N 37°56' E 023°34'0 0.0
2017-Sep-14 09:30N 37°56' E 023°34'0 0.0
2017-Sep-14 09:01N 37°56' E 023°34'0 0.0
2017-Sep-14 08:30N 37°56' E 023°34'0 0.0
2017-Sep-14 08:00N 37°56' E 023°34'0 0.0
2017-Sep-14 07:30N 37°56' E 023°34'0 0.0
2017-Sep-14 07:00N 37°56' E 023°34'0 0.0
2017-Sep-14 06:30N 37°56' E 023°34'0 0.0
2017-Sep-14 06:00N 37°56' E 023°34'0 0.0
2017-Sep-14 05:31N 37°56' E 023°34'0 0.0
2017-Sep-14 05:00N 37°56' E 023°34'0 0.0
2017-Sep-14 04:30N 37°56' E 023°34'0 0.0
2017-Sep-14 04:00N 37°56' E 023°34'0 0.0
2017-Sep-14 03:30N 37°56' E 023°34'0 0.0
2017-Sep-14 03:01N 37°56' E 023°34'0 0.0
2017-Sep-14 02:30N 37°56' E 023°34'0 0.0
2017-Sep-14 02:00N 37°56' E 023°34'0 0.0
2017-Sep-14 01:31N 37°56' E 023°34'0 0.0
2017-Sep-14 01:00N 37°56' E 023°34'0 0.0
2017-Sep-14 00:31N 37°56' E 023°34'0 0.0
2017-Sep-14 00:00N 37°56' E 023°34'0 0.0
2017-Sep-13 23:30N 37°56' E 023°34'0 0.0
2017-Sep-13 23:00N 37°56' E 023°34'0 0.0
2017-Sep-13 22:30N 37°56' E 023°34'0 0.0
2017-Sep-13 22:00N 37°56' E 023°34'0 0.0
2017-Sep-13 21:30N 37°56' E 023°34'0 0.1
2017-Sep-13 21:01N 37°56' E 023°34'0 0.0
2017-Sep-13 20:30N 37°56' E 023°34'0 0.0
2017-Sep-13 20:00N 37°56' E 023°34'0 0.0
2017-Sep-13 19:30N 37°56' E 023°34'0 0.0
2017-Sep-13 19:01N 37°56' E 023°34'0 0.0
2017-Sep-13 18:31N 37°56' E 023°34'0 0.1
2017-Sep-13 18:01N 37°56' E 023°34'0 0.3
2017-Sep-13 17:30N 37°56' E 023°34'0 0.5
2017-Sep-13 17:00N 37°56' E 023°34'1 2.6
2017-Sep-13 16:30N 37°57' E 023°33'0 0.0
2017-Sep-13 16:00N 37°57' E 023°33'0 0.0
2017-Sep-13 15:30N 37°57' E 023°33'1 2.9
2017-Sep-13 15:00N 37°56' E 023°34'0 0.1
2017-Sep-13 14:30N 37°56' E 023°34'0 0.0
2017-Sep-13 14:00N 37°56' E 023°34'0 0.0
2017-Sep-13 13:30N 37°56' E 023°34'0 0.0
2017-Sep-13 13:01N 37°56' E 023°34'0 0.0
2017-Sep-13 12:31N 37°56' E 023°34'0 0.0
2017-Sep-13 12:00N 37°56' E 023°34'0 0.0
2017-Sep-13 11:31N 37°56' E 023°34'0 0.0
2017-Sep-13 11:00N 37°56' E 023°34'0 0.0
2017-Sep-13 10:31N 37°56' E 023°34'0 0.0
2017-Sep-13 10:00N 37°56' E 023°34'0 0.0
2017-Sep-13 09:30N 37°56' E 023°34'0 0.0
2017-Sep-13 09:01N 37°56' E 023°34'0 0.0
2017-Sep-13 08:30N 37°56' E 023°34'0 0.1
2017-Sep-13 08:00N 37°56' E 023°34'0 0.5
2017-Sep-13 07:30N 37°56' E 023°34'0 0.4
2017-Sep-13 07:00N 37°56' E 023°34'0 0.1
2017-Sep-13 06:30N 37°56' E 023°34'0 0.0
2017-Sep-13 06:01N 37°56' E 023°34'0 0.0
2017-Sep-13 05:30N 37°56' E 023°34'0 0.2
2017-Sep-13 05:01N 37°56' E 023°34'1 1.9
2017-Sep-13 04:30N 37°57' E 023°35'1 2.9
2017-Sep-13 04:00N 37°57' E 023°33'0 0.0
2017-Sep-13 03:30N 37°57' E 023°33'0 0.0
2017-Sep-12 05:08N 37°57' E 023°33'0 1.8
2017-Sep-12 05:00N 37°57' E 023°33'1 2.6
2017-Sep-12 04:30N 37°56' E 023°34'0 0.0
2017-Sep-12 04:00N 37°56' E 023°34'0 0.0
2017-Sep-12 03:30N 37°56' E 023°34'0 0.0
2017-Sep-12 03:00N 37°56' E 023°34'0 0.0
2017-Sep-12 02:30N 37°56' E 023°34'0 0.0
2017-Sep-12 02:00N 37°56' E 023°34'0 0.0
2017-Sep-12 01:30N 37°56' E 023°34'0 0.0
2017-Sep-12 01:00N 37°56' E 023°34'0 0.0
2017-Sep-12 00:30N 37°56' E 023°34'0 0.0
2017-Sep-12 00:00N 37°56' E 023°34'0 0.0
2017-Sep-11 23:31N 37°56' E 023°34'0 0.1
2017-Sep-11 23:00N 37°56' E 023°34'0 0.0
2017-Sep-11 22:30N 37°56' E 023°34'0 0.0
2017-Sep-11 22:01N 37°56' E 023°34'0 0.0
2017-Sep-11 21:31N 37°56' E 023°34'0 0.0
2017-Sep-11 21:00N 37°56' E 023°34'0 0.0
2017-Sep-11 20:30N 37°56' E 023°34'0 0.0
2017-Sep-11 20:01N 37°56' E 023°34'0 0.0
2017-Sep-11 19:31N 37°56' E 023°34'0 0.0
2017-Sep-11 19:00N 37°56' E 023°34'0 0.0
2017-Sep-11 18:31N 37°56' E 023°34'0 0.0
2017-Sep-11 18:01N 37°56' E 023°34'0 0.0
2017-Sep-11 17:31N 37°56' E 023°34'0 0.0
2017-Sep-11 17:01N 37°56' E 023°34'0 0.0
2017-Sep-11 16:30N 37°56' E 023°34'0 0.0
2017-Sep-11 16:00N 37°56' E 023°34'0 0.0
2017-Sep-11 15:30N 37°56' E 023°34'0 0.0
2017-Sep-11 15:01N 37°56' E 023°34'0 0.3
2017-Sep-11 14:30N 37°56' E 023°34'0 0.4
2017-Sep-11 14:01N 37°56' E 023°34'0 0.6
2017-Sep-11 13:31N 37°56' E 023°34'1 2.6
2017-Sep-11 13:01N 37°57' E 023°33'0 0.3
2017-Sep-11 12:31N 37°57' E 023°33'0 0.5
2017-Sep-11 12:00N 37°57' E 023°33'0 0.0
2017-Sep-11 11:30N 37°57' E 023°33'1 1.8
2017-Sep-11 11:00N 37°57' E 023°34'1 2.4
2017-Sep-11 10:30N 37°56' E 023°34'0 0.0
2017-Sep-11 10:01N 37°56' E 023°34'0 0.0
2017-Sep-11 09:30N 37°56' E 023°34'0 0.0
2017-Sep-11 09:01N 37°56' E 023°34'0 0.0
2017-Sep-11 08:30N 37°56' E 023°34'0 0.0
2017-Sep-11 08:00N 37°56' E 023°34'0 0.0
2017-Sep-11 07:31N 37°56' E 023°34'0 0.0
2017-Sep-11 07:00N 37°56' E 023°34'0 0.0
2017-Sep-11 06:31N 37°56' E 023°34'0 0.0
2017-Sep-11 06:00N 37°56' E 023°34'0 0.0
2017-Sep-11 05:31N 37°56' E 023°34'0 0.0
2017-Sep-11 05:01N 37°56' E 023°34'0 0.0
2017-Sep-11 04:30N 37°56' E 023°34'0 0.0
2017-Sep-11 04:00N 37°56' E 023°34'0 0.0
2017-Sep-11 03:31N 37°56' E 023°34'0 0.0
2017-Sep-11 03:00N 37°56' E 023°34'0 0.0
2017-Sep-11 02:30N 37°56' E 023°34'0 0.0
2017-Sep-11 02:00N 37°56' E 023°34'0 0.0
2017-Sep-11 01:30N 37°56' E 023°34'0 0.0
2017-Sep-11 01:00N 37°56' E 023°34'0 0.0
2017-Sep-11 00:30N 37°56' E 023°34'0 0.0
2017-Sep-11 00:01N 37°56' E 023°34'0 0.0
2017-Sep-10 23:30N 37°56' E 023°34'0 0.0
2017-Sep-10 23:01N 37°56' E 023°34'0 0.0
2017-Sep-10 22:30N 37°56' E 023°34'0 0.0
2017-Sep-10 22:01N 37°56' E 023°34'0 0.0
2017-Sep-10 21:30N 37°56' E 023°34'0 0.0
2017-Sep-10 21:00N 37°56' E 023°34'0 0.0
2017-Sep-10 20:30N 37°56' E 023°34'0 0.0
2017-Sep-10 20:00N 37°56' E 023°34'0 0.0
2017-Sep-10 19:30N 37°56' E 023°34'0 0.0
2017-Sep-10 19:00N 37°56' E 023°34'0 0.0
2017-Sep-10 18:30N 37°56' E 023°34'0 0.0
2017-Sep-10 18:01N 37°56' E 023°34'0 0.0
2017-Sep-10 17:30N 37°56' E 023°34'0 0.0
2017-Sep-10 17:00N 37°56' E 023°34'0 0.0
2017-Sep-10 16:31N 37°56' E 023°34'0 0.0
2017-Sep-10 16:00N 37°56' E 023°34'0 0.0
2017-Sep-10 15:30N 37°56' E 023°34'0 0.0
2017-Sep-10 15:00N 37°56' E 023°34'0 0.0
2017-Sep-10 14:00N 37°56' E 023°34'0 0.0
2017-Sep-10 13:30N 37°56' E 023°34'0 0.0
2017-Sep-10 13:00N 37°56' E 023°34'0 0.0
2017-Sep-10 12:30N 37°56' E 023°34'0 0.4
2017-Sep-10 12:01N 37°56' E 023°34'1 2.9
2017-Sep-10 11:30N 37°57' E 023°33'0 0.4
2017-Sep-10 11:00N 37°57' E 023°33'0 0.0
2017-Sep-10 10:30N 37°57' E 023°33'0 0.0
2017-Sep-10 10:00N 37°57' E 023°33'0 0.5
2017-Sep-10 09:30N 37°57' E 023°33'1 2.8
2017-Sep-10 09:00N 37°56' E 023°34'0 0.0
2017-Sep-10 08:30N 37°56' E 023°34'0 0.0
2017-Sep-10 08:00N 37°56' E 023°34'0 0.0
2017-Sep-10 07:30N 37°56' E 023°34'0 0.6
2017-Sep-10 07:00N 37°56' E 023°34'0 0.3
2017-Sep-10 06:30N 37°56' E 023°34'0 0.3
2017-Sep-10 06:00N 37°56' E 023°34'0 0.1
2017-Sep-10 05:30N 37°56' E 023°34'0 0.1
2017-Sep-10 05:00N 37°56' E 023°34'1 1.3
2017-Sep-10 04:30N 37°56' E 023°35'2 3.3
2017-Sep-10 04:01N 37°57' E 023°33'0 0.0
2017-Sep-10 03:31N 37°57' E 023°33'0 0.0
2017-Sep-10 03:00N 37°57' E 023°33'0 0.0
2017-Sep-10 02:30N 37°57' E 023°33'0 0.0
2017-Sep-10 02:00N 37°57' E 023°33'0 0.0
2017-Sep-10 01:30N 37°57' E 023°33'0 0.0
2017-Sep-10 01:01N 37°57' E 023°33'0 0.0
2017-Sep-10 00:30N 37°57' E 023°33'0 0.0
2017-Sep-10 00:00N 37°57' E 023°33'0 0.0
2017-Sep-09 23:30N 37°57' E 023°33'0 0.0
2017-Sep-09 23:00N 37°57' E 023°33'0 0.0
2017-Sep-09 22:30N 37°57' E 023°33'0 0.0
2017-Sep-09 22:00N 37°57' E 023°33'0 0.0
2017-Sep-09 21:30N 37°57' E 023°33'0 0.0
2017-Sep-09 21:00N 37°57' E 023°33'0 0.0
2017-Sep-09 20:30N 37°57' E 023°33'  

Dump ship's entire track history